createdAt,value
2023-03-26T00:02:26.829Z,109.03
2023-03-26T00:06:26.968Z,109.54
2023-03-26T00:10:27.174Z,99.22
2023-03-26T00:14:27.326Z,136.55
2023-03-26T00:18:27.521Z,140.08
2023-03-26T00:22:27.717Z,129.93
2023-03-26T00:26:27.808Z,120.47
2023-03-26T00:30:27.984Z,120.77
2023-03-26T00:34:28.033Z,111.50
2023-03-26T00:38:28.097Z,109.10
2023-03-26T00:42:28.275Z,129.72
2023-03-26T00:46:28.430Z,111.27
2023-03-26T00:50:28.504Z,106.35
2023-03-26T00:54:28.640Z,116.34
2023-03-26T00:58:28.703Z,118.71
2023-03-26T01:02:28.935Z,128.90
2023-03-26T01:06:29.066Z,140.12
2023-03-26T01:10:29.221Z,151.45
2023-03-26T01:14:29.342Z,142.17
2023-03-26T01:18:29.463Z,158.01
2023-03-26T01:22:29.653Z,165.61
2023-03-26T01:26:29.872Z,168.13
2023-03-26T01:30:29.974Z,167.40
2023-03-26T01:34:30.187Z,168.52
2023-03-26T01:38:30.356Z,189.53
2023-03-26T01:42:30.522Z,174.44
2023-03-26T01:46:30.671Z,154.07
2023-03-26T01:50:30.679Z,150.90
2023-03-26T01:54:30.859Z,150.18
2023-03-26T01:58:31.079Z,143.05
2023-03-26T02:02:31.346Z,144.78
2023-03-26T02:06:31.368Z,140.94
2023-03-26T02:10:31.570Z,160.38
2023-03-26T02:14:31.883Z,153.84
2023-03-26T02:18:31.985Z,137.95
2023-03-26T02:22:32.216Z,143.40
2023-03-26T02:26:32.405Z,140.35
2023-03-26T02:30:32.596Z,129.55
2023-03-26T02:34:32.756Z,137.77
2023-03-26T02:38:32.804Z,135.65
2023-03-26T02:42:32.958Z,143.25
2023-03-26T02:46:33.253Z,163.66
2023-03-26T02:50:33.361Z,145.32
2023-03-26T02:54:33.567Z,140.04
2023-03-26T02:58:33.746Z,154.49
2023-03-26T03:02:33.981Z,163.39
2023-03-26T03:06:34.006Z,140.58
2023-03-26T03:10:34.099Z,167.64
2023-03-26T03:14:34.225Z,154.83
2023-03-26T03:18:34.379Z,164.99
2023-03-26T03:22:34.575Z,170.25
2023-03-26T03:26:34.664Z,174.56
2023-03-26T03:30:34.779Z,163.96
2023-03-26T03:34:34.969Z,167.78
2023-03-26T03:38:35.013Z,185.17
2023-03-26T03:42:35.159Z,189.66
2023-03-26T03:46:35.374Z,180.34
2023-03-26T03:50:36.064Z,175.10
2023-03-26T03:54:35.624Z,174.96
2023-03-26T03:58:35.721Z,176.71
2023-03-26T04:02:35.959Z,190.08
2023-03-26T04:06:36.010Z,182.34
2023-03-26T04:10:36.177Z,176.65
2023-03-26T04:14:36.323Z,173.36
2023-03-26T04:18:36.458Z,160.50
2023-03-26T04:22:36.650Z,217.10
2023-03-26T04:26:36.736Z,216.48
2023-03-26T04:30:36.859Z,202.31
2023-03-26T04:34:37.013Z,210.21
2023-03-26T04:38:37.163Z,194.62
2023-03-26T04:42:37.293Z,183.61
2023-03-26T04:46:37.430Z,174.81
2023-03-26T04:50:37.587Z,185.31
2023-03-26T04:54:37.733Z,189.31
2023-03-26T04:58:37.864Z,202.57
2023-03-26T05:02:38.051Z,197.07
2023-03-26T05:06:38.164Z,187.37
2023-03-26T05:10:38.283Z,179.41
2023-03-26T05:14:38.454Z,183.24
2023-03-26T05:18:38.602Z,172.28
2023-03-26T05:22:38.697Z,178.44
2023-03-26T05:26:38.839Z,179.58
2023-03-26T05:30:38.926Z,173.50
2023-03-26T05:34:39.081Z,172.06
2023-03-26T05:38:39.187Z,175.40
2023-03-26T05:42:39.305Z,179.96
2023-03-26T05:46:39.422Z,186.63
2023-03-26T05:50:39.566Z,173.29
2023-03-26T05:54:39.691Z,171.72
2023-03-26T05:58:39.796Z,170.88
2023-03-26T06:02:39.934Z,167.09
2023-03-26T06:06:40.040Z,166.32
2023-03-26T06:10:40.170Z,168.71
2023-03-26T06:14:40.343Z,167.75
2023-03-26T06:18:40.457Z,171.64
2023-03-26T06:22:40.537Z,167.18
2023-03-26T06:26:40.620Z,173.65
2023-03-26T06:30:40.778Z,185.04
2023-03-26T06:34:40.920Z,194.48
2023-03-26T06:38:40.959Z,197.42
2023-03-26T06:43:08.226Z,206.70
2023-03-26T06:46:42.214Z,202.69
2023-03-26T06:50:41.123Z,208.10
2023-03-26T06:54:41.183Z,208.53
2023-03-26T06:58:41.216Z,213.51
2023-03-26T07:02:41.317Z,212.50
2023-03-26T07:06:41.439Z,210.20
2023-03-26T07:10:41.575Z,218.94
2023-03-26T07:14:41.698Z,230.53
2023-03-26T07:18:41.835Z,249.65
2023-03-26T07:22:41.949Z,249.34
2023-03-26T07:26:42.122Z,247.35
2023-03-26T07:30:42.181Z,250.00
2023-03-26T07:34:42.318Z,247.50
2023-03-26T07:38:42.417Z,240.79
2023-03-26T07:42:42.540Z,239.62
2023-03-26T07:46:42.595Z,246.38
2023-03-26T07:50:42.725Z,249.07
2023-03-26T07:54:42.800Z,245.55
2023-03-26T07:58:42.826Z,239.60
2023-03-26T08:02:42.924Z,244.92
2023-03-26T08:06:42.958Z,244.99
2023-03-26T08:10:43.070Z,243.82
2023-03-26T08:14:43.186Z,241.53
2023-03-26T08:18:43.253Z,235.29
2023-03-26T08:22:43.397Z,235.88
2023-03-26T08:26:43.514Z,235.39
2023-03-26T08:30:43.753Z,232.54
2023-03-26T08:34:43.767Z,230.07
2023-03-26T08:38:45.136Z,239.33
2023-03-26T08:42:43.809Z,238.29
2023-03-26T08:46:43.807Z,231.55
2023-03-26T08:50:43.749Z,228.62
2023-03-26T08:54:43.705Z,223.35
2023-03-26T08:58:43.694Z,218.55
2023-03-26T09:02:43.683Z,219.33
2023-03-26T09:06:43.615Z,209.04
2023-03-26T09:10:43.544Z,214.44
2023-03-26T09:14:43.509Z,212.19
2023-03-26T09:18:43.481Z,215.90
2023-03-26T09:22:43.455Z,204.52
2023-03-26T09:26:43.409Z,202.81
2023-03-26T09:30:43.377Z,198.91
2023-03-26T09:34:43.364Z,202.51
2023-03-26T09:38:43.298Z,200.02
2023-03-26T09:42:43.257Z,201.20
2023-03-26T09:46:44.489Z,202.79
2023-03-26T09:50:43.255Z,208.72
2023-03-26T09:54:43.192Z,203.30
2023-03-26T09:58:43.151Z,194.27
2023-03-26T10:02:46.456Z,198.57
2023-03-26T10:06:43.095Z,191.10
2023-03-26T10:10:43.060Z,186.08
2023-03-26T10:14:43.031Z,183.67
2023-03-26T10:18:42.975Z,182.46
2023-03-26T10:22:42.954Z,182.65
2023-03-26T10:27:08.747Z,175.65
2023-03-26T10:30:44.094Z,177.15
2023-03-26T10:34:42.996Z,175.76
2023-03-26T10:38:42.960Z,178.02
2023-03-26T10:42:43.039Z,180.97
2023-03-26T10:46:43.192Z,181.88
2023-03-26T10:50:43.325Z,181.01
2023-03-26T10:54:43.444Z,179.49
2023-03-26T10:58:48.525Z,180.74
2023-03-26T11:02:44.642Z,183.23
2023-03-26T11:06:43.513Z,182.50
2023-03-26T11:10:43.504Z,181.41
2023-03-26T11:14:43.548Z,185.49
2023-03-26T11:18:43.704Z,184.09
2023-03-26T11:22:43.866Z,182.11
2023-03-26T11:26:44.049Z,182.63
2023-03-26T11:30:44.224Z,180.30
2023-03-26T11:34:44.315Z,179.77
2023-03-26T11:38:44.432Z,184.77
2023-03-26T11:42:44.581Z,177.41
2023-03-26T11:46:44.719Z,182.72
2023-03-26T11:50:44.856Z,182.28
2023-03-26T11:54:44.964Z,180.49
2023-03-26T11:58:45.107Z,180.57
2023-03-26T12:02:45.307Z,183.40
2023-03-26T12:06:45.395Z,175.86
2023-03-26T12:10:45.461Z,182.10
2023-03-26T12:14:45.522Z,179.12
2023-03-26T12:18:45.664Z,178.94
2023-03-26T12:22:47.746Z,180.34
2023-03-26T12:26:45.770Z,183.33
2023-03-26T12:30:45.834Z,178.86
2023-03-26T12:34:45.924Z,173.09
2023-03-26T12:38:45.998Z,159.44
2023-03-26T12:44:49.467Z,157.92
2023-03-26T12:47:56.345Z,149.73
2023-03-26T12:50:46.858Z,147.43
2023-03-26T12:54:45.831Z,144.23
2023-03-26T12:58:45.796Z,137.11
2023-03-26T13:02:45.838Z,119.27
2023-03-26T13:06:59.102Z,98.89
2023-03-26T13:10:46.682Z,102.62
2023-03-26T13:14:45.643Z,94.24
2023-03-26T13:18:45.596Z,101.42
2023-03-26T13:22:45.673Z,90.90
2023-03-26T13:26:45.786Z,82.83
2023-03-26T13:30:45.949Z,75.58
2023-03-26T13:34:45.981Z,81.37
2023-03-26T13:38:58.959Z,79.22
2023-03-26T13:42:47.059Z,84.29
2023-03-26T13:46:45.998Z,79.58
2023-03-26T13:50:45.962Z,66.18
2023-03-26T13:54:45.980Z,64.54
2023-03-26T13:58:46.088Z,55.99
2023-03-26T14:02:46.205Z,57.74
2023-03-26T14:06:46.302Z,50.78
2023-03-26T14:10:46.409Z,49.78
2023-03-26T14:14:48.534Z,42.74
2023-03-26T14:18:46.771Z,27.69
2023-03-26T14:22:46.793Z,48.01
2023-03-26T14:26:46.986Z,46.20
2023-03-26T14:30:47.120Z,30.73
2023-03-26T14:34:47.292Z,35.70
2023-03-26T14:38:47.373Z,30.53
2023-03-26T14:42:47.513Z,37.81
2023-03-26T14:46:47.782Z,30.53
2023-03-26T14:50:47.819Z,42.57
2023-03-26T14:54:47.945Z,37.16
2023-03-26T14:58:48.025Z,38.75
2023-03-26T15:02:48.176Z,35.61
2023-03-26T15:06:48.333Z,35.15
2023-03-26T15:10:48.482Z,44.67
2023-03-26T15:14:48.640Z,41.03
2023-03-26T15:18:48.839Z,28.33
2023-03-26T15:22:48.922Z,49.53
2023-03-26T15:26:49.037Z,28.30
2023-03-26T15:30:49.194Z,28.68
2023-03-26T15:34:49.344Z,42.17
2023-03-26T15:38:49.510Z,41.12
2023-03-26T15:42:49.628Z,58.13
2023-03-26T15:46:49.775Z,53.26
2023-03-26T15:50:49.912Z,63.30
2023-03-26T15:54:50.028Z,61.01
2023-03-26T15:58:50.204Z,63.41
2023-03-26T16:02:50.540Z,59.18
2023-03-26T16:06:50.516Z,71.19
2023-03-26T16:10:50.692Z,68.79
2023-03-26T16:14:50.873Z,62.71
2023-03-26T16:18:51.030Z,63.01
2023-03-26T16:22:51.237Z,83.67
2023-03-26T16:26:51.397Z,107.02
2023-03-26T16:30:51.596Z,103.00
2023-03-26T16:34:51.692Z,106.20
2023-03-26T16:38:51.851Z,114.88
2023-03-26T16:42:51.978Z,115.56
2023-03-26T16:46:52.186Z,115.39
2023-03-26T16:50:52.262Z,105.73
2023-03-26T16:54:52.405Z,102.61
2023-03-26T16:58:52.552Z,85.06
2023-03-26T17:02:52.798Z,89.97
2023-03-26T17:06:52.877Z,93.40
2023-03-26T17:10:53.286Z,113.36
2023-03-26T17:14:53.216Z,113.80
2023-03-26T17:18:53.419Z,125.69
2023-03-26T17:22:53.537Z,144.37
2023-03-26T17:26:53.670Z,140.79
2023-03-26T17:30:53.984Z,129.63
2023-03-26T17:34:53.916Z,164.19
2023-03-26T17:38:54.080Z,191.24
2023-03-26T17:42:54.229Z,182.41
2023-03-26T17:46:54.397Z,157.94
2023-03-26T17:50:54.693Z,181.16
2023-03-26T17:54:54.677Z,154.55
2023-03-26T17:58:54.755Z,207.73
2023-03-26T18:02:55.044Z,184.81
2023-03-26T18:06:55.160Z,145.20
2023-03-26T18:10:55.476Z,182.89
2023-03-26T18:14:55.483Z,148.77
2023-03-26T18:18:55.631Z,143.70
2023-03-26T18:22:55.847Z,139.65
2023-03-26T18:26:55.988Z,76.76
2023-03-26T18:30:56.213Z,66.92
2023-03-26T18:34:56.157Z,54.40
2023-03-26T18:38:56.299Z,130.14
2023-03-26T18:42:56.477Z,125.30
2023-03-26T18:46:56.671Z,105.00
2023-03-26T18:50:57.043Z,135.17
2023-03-26T18:54:57.035Z,113.07
2023-03-26T18:58:57.037Z,112.50
2023-03-26T19:02:57.296Z,81.14
2023-03-26T19:06:57.341Z,69.29
2023-03-26T19:10:57.504Z,89.52
2023-03-26T19:14:57.437Z,47.70
2023-03-26T19:18:57.694Z,99.00
2023-03-26T19:22:57.914Z,105.25
2023-03-26T19:26:57.708Z,101.22
2023-03-26T19:30:58.167Z,140.38
2023-03-26T19:34:58.075Z,171.51
2023-03-26T19:38:58.298Z,105.91
2023-03-26T19:42:58.361Z,58.09
2023-03-26T19:46:58.515Z,86.19
2023-03-26T19:50:58.760Z,68.84
2023-03-26T19:54:59.908Z,39.57
2023-03-26T19:58:59.012Z,86.02
2023-03-26T20:02:59.355Z,101.04
2023-03-26T20:06:59.287Z,33.42
2023-03-26T20:10:59.722Z,39.29
2023-03-26T20:14:59.483Z,70.79
2023-03-26T20:18:59.550Z,25.42
2023-03-26T20:22:59.749Z,33.06
2023-03-26T20:26:59.987Z,63.23
2023-03-26T20:31:00.162Z,49.17
2023-03-26T20:35:00.151Z,29.48
2023-03-26T20:39:00.337Z,25.71
2023-03-26T20:43:00.376Z,38.47
2023-03-26T20:47:00.585Z,24.92
2023-03-26T20:51:00.765Z,34.00
2023-03-26T20:55:00.992Z,53.90
2023-03-26T20:59:10.444Z,37.32
2023-03-26T21:03:02.129Z,30.18
2023-03-26T21:07:11.163Z,39.81
2023-03-26T21:11:02.079Z,65.29
2023-03-26T21:15:01.749Z,42.89
2023-03-26T21:19:00.985Z,80.46
2023-03-26T21:23:00.938Z,86.30
2023-03-26T21:27:00.894Z,44.66
2023-03-26T21:31:00.855Z,39.28
2023-03-26T21:35:00.849Z,42.49
2023-03-26T21:39:00.775Z,38.14
2023-03-26T21:43:00.844Z,38.06
2023-03-26T21:47:01.057Z,100.19
2023-03-26T21:51:01.022Z,113.91
2023-03-26T21:55:01.000Z,52.10
2023-03-26T21:59:00.928Z,56.01
2023-03-26T22:03:00.986Z,61.15
2023-03-26T22:07:00.854Z,50.47
2023-03-26T22:11:00.830Z,51.19
2023-03-26T22:15:00.771Z,38.87
2023-03-26T22:19:00.748Z,24.73
2023-03-26T22:23:00.721Z,25.00
2023-03-26T22:27:00.664Z,32.01
2023-03-26T22:31:00.705Z,29.45
2023-03-26T22:35:00.586Z,27.42
2023-03-26T22:39:00.561Z,27.69
2023-03-26T22:43:00.633Z,42.28
2023-03-26T22:47:00.816Z,37.14
2023-03-26T22:51:01.077Z,31.30
2023-03-26T22:55:01.424Z,66.89
2023-03-26T22:59:01.201Z,68.56
2023-03-26T23:03:01.431Z,44.20
2023-03-26T23:07:01.646Z,52.75
2023-03-26T23:11:01.846Z,66.51
2023-03-26T23:15:01.890Z,46.12
2023-03-26T23:19:02.105Z,56.04
2023-03-26T23:23:02.315Z,62.66
2023-03-26T23:27:02.465Z,47.09
2023-03-26T23:31:02.543Z,37.47
2023-03-26T23:35:02.698Z,39.61
2023-03-26T23:39:02.884Z,57.26
2023-03-26T23:43:03.076Z,39.42
2023-03-26T23:47:03.219Z,92.24
2023-03-26T23:51:04.394Z,82.45
2023-03-26T23:55:03.499Z,33.36
2023-03-26T23:59:03.619Z,94.28
